createdAt,value
2023-05-07T00:00:22.017Z,14.65
2023-05-07T00:02:48.934Z,14.67
2023-05-07T00:05:16.176Z,14.47
2023-05-07T00:07:43.012Z,14.53
2023-05-07T00:10:11.773Z,14.51
2023-05-07T00:12:38.995Z,14.40
2023-05-07T00:15:06.995Z,13.83
2023-05-07T00:17:34.316Z,14.00
2023-05-07T00:20:00.997Z,14.13
2023-05-07T00:22:27.618Z,14.16
2023-05-07T00:24:54.150Z,13.90
2023-05-07T00:27:20.715Z,14.06
2023-05-07T00:29:47.375Z,13.94
2023-05-07T00:32:14.124Z,13.72
2023-05-07T00:34:41.201Z,13.95
2023-05-07T00:37:10.680Z,13.84
2023-05-07T00:39:37.214Z,13.41
2023-05-07T00:42:04.343Z,13.77
2023-05-07T00:44:30.907Z,13.51
2023-05-07T00:46:58.832Z,13.80
2023-05-07T00:49:39.528Z,13.83
2023-05-07T00:52:08.312Z,13.77
2023-05-07T00:54:35.658Z,13.67
2023-05-07T00:57:04.473Z,13.68
2023-05-07T00:59:32.757Z,13.78
2023-05-07T01:02:00.268Z,13.39
2023-05-07T01:04:27.664Z,13.36
2023-05-07T01:07:01.217Z,13.75
2023-05-07T01:09:29.429Z,13.74
2023-05-07T01:11:58.488Z,13.45
2023-05-07T01:14:26.633Z,13.29
2023-05-07T01:16:54.298Z,13.82
2023-05-07T01:19:23.118Z,13.75
2023-05-07T01:21:50.102Z,13.94
2023-05-07T01:24:19.315Z,14.00
2023-05-07T01:26:46.021Z,13.98
2023-05-07T01:29:14.951Z,14.07
2023-05-07T01:31:44.068Z,14.17
2023-05-07T01:34:14.006Z,13.69
2023-05-07T01:36:43.840Z,14.21
2023-05-07T01:39:11.640Z,14.22
2023-05-07T01:41:38.255Z,13.92
2023-05-07T01:44:06.454Z,14.32
2023-05-07T01:46:33.869Z,14.47
2023-05-07T01:49:00.536Z,14.40
2023-05-07T01:51:28.101Z,14.45
2023-05-07T01:53:55.689Z,14.61
2023-05-07T01:56:23.249Z,14.59
2023-05-07T01:58:52.105Z,14.34
2023-05-07T02:01:19.253Z,14.58
2023-05-07T02:03:46.347Z,14.75
2023-05-07T02:06:20.849Z,14.29
2023-05-07T02:08:48.337Z,14.33
2023-05-07T02:11:16.150Z,14.69
2023-05-07T02:13:42.776Z,14.78
2023-05-07T02:16:09.573Z,14.33
2023-05-07T02:18:36.895Z,14.76
2023-05-07T02:21:03.727Z,14.76
2023-05-07T02:23:31.716Z,14.75
2023-05-07T02:25:58.243Z,14.77
2023-05-07T02:28:25.268Z,14.51
2023-05-07T02:30:59.408Z,14.34
2023-05-07T02:33:25.984Z,14.54
2023-05-07T02:35:52.942Z,14.77
2023-05-07T02:38:19.550Z,14.77
2023-05-07T02:40:46.076Z,14.78
2023-05-07T02:43:12.754Z,14.35
2023-05-07T02:45:44.181Z,14.75
2023-05-07T02:48:11.781Z,14.69
2023-05-07T02:50:38.428Z,14.81
2023-05-07T02:53:05.021Z,14.63
2023-05-07T02:55:32.239Z,14.79
2023-05-07T02:57:58.786Z,14.64
2023-05-07T03:00:26.366Z,14.49
2023-05-07T03:03:03.187Z,14.79
2023-05-07T03:05:30.011Z,14.77
2023-05-07T03:07:56.549Z,14.81
2023-05-07T03:10:23.076Z,14.72
2023-05-07T03:12:49.604Z,14.73
2023-05-07T03:15:17.849Z,14.21
2023-05-07T03:17:44.532Z,14.43
2023-05-07T03:20:12.065Z,14.65
2023-05-07T03:22:39.833Z,14.10
2023-05-07T03:25:08.077Z,14.74
2023-05-07T03:27:34.680Z,14.72
2023-05-07T03:30:01.888Z,14.65
2023-05-07T03:32:28.710Z,14.75
2023-05-07T03:34:55.291Z,14.71
2023-05-07T03:37:22.807Z,14.79
2023-05-07T03:39:49.732Z,14.78
2023-05-07T03:42:16.856Z,14.78
2023-05-07T03:44:43.440Z,14.65
2023-05-07T03:47:11.266Z,14.80
2023-05-07T03:49:38.517Z,14.63
2023-05-07T03:52:06.500Z,14.79
2023-05-07T03:54:33.904Z,14.73
2023-05-07T03:57:00.677Z,14.75
2023-05-07T03:59:27.738Z,14.72
2023-05-07T04:01:56.027Z,14.84
2023-05-07T04:04:24.614Z,14.73
2023-05-07T04:06:51.247Z,14.52
2023-05-07T04:09:17.779Z,14.76
2023-05-07T04:11:46.366Z,14.83
2023-05-07T04:14:12.959Z,14.46
2023-05-07T04:16:39.895Z,14.83
2023-05-07T04:19:08.079Z,14.86
2023-05-07T04:21:35.331Z,14.77
2023-05-07T04:24:04.416Z,14.15
2023-05-07T04:26:31.168Z,14.88
2023-05-07T04:29:00.010Z,14.80
2023-05-07T04:31:31.600Z,14.77
2023-05-07T04:33:59.053Z,14.88
2023-05-07T04:36:28.436Z,14.84
2023-05-07T04:39:00.072Z,14.83
2023-05-07T04:41:27.517Z,14.40
2023-05-07T04:43:54.361Z,14.50
2023-05-07T04:46:23.397Z,14.84
2023-05-07T04:48:50.211Z,14.92
2023-05-07T04:51:17.019Z,14.83
2023-05-07T04:53:44.178Z,14.98
2023-05-07T04:56:11.133Z,14.55
2023-05-07T04:58:41.580Z,15.03
2023-05-07T05:01:09.172Z,14.97
2023-05-07T05:03:35.932Z,15.05
2023-05-07T05:06:02.955Z,14.92
2023-05-07T05:08:33.057Z,14.69
2023-05-07T05:11:02.905Z,15.18
2023-05-07T05:13:31.378Z,15.22
2023-05-07T05:15:58.411Z,14.91
2023-05-07T05:18:26.690Z,14.67
2023-05-07T05:20:53.247Z,15.43
2023-05-07T05:23:20.850Z,15.37
2023-05-07T05:25:47.944Z,15.52
2023-05-07T05:28:14.873Z,15.52
2023-05-07T05:30:41.740Z,15.62
2023-05-07T05:33:09.273Z,15.77
2023-05-07T05:35:36.555Z,15.49
2023-05-07T05:38:05.745Z,15.96
2023-05-07T05:40:34.367Z,16.05
2023-05-07T05:43:01.318Z,15.69
2023-05-07T05:45:28.368Z,16.32
2023-05-07T05:47:57.632Z,16.53
2023-05-07T05:50:24.658Z,16.72
2023-05-07T05:52:52.702Z,16.97
2023-05-07T05:55:20.840Z,16.75
2023-05-07T05:57:47.585Z,17.24
2023-05-07T06:00:14.853Z,17.27
2023-05-07T06:02:47.432Z,17.23
2023-05-07T06:05:20.448Z,16.91
2023-05-07T06:07:50.988Z,17.23
2023-05-07T06:10:18.075Z,16.54
2023-05-07T06:12:45.443Z,16.97
2023-05-07T06:15:12.106Z,16.73
2023-05-07T06:17:39.593Z,17.17
2023-05-07T06:20:07.909Z,17.15
2023-05-07T06:22:34.476Z,16.82
2023-05-07T06:25:01.857Z,17.26
2023-05-07T06:27:29.116Z,17.26
2023-05-07T06:29:56.336Z,17.33
2023-05-07T06:32:22.981Z,17.23
2023-05-07T06:34:50.740Z,17.43
2023-05-07T06:37:17.464Z,17.49
2023-05-07T06:39:52.748Z,17.43
2023-05-07T06:42:19.382Z,17.61
2023-05-07T06:44:48.373Z,17.54
2023-05-07T06:47:17.207Z,17.80
2023-05-07T06:49:46.787Z,17.73
2023-05-07T06:52:16.524Z,17.88
2023-05-07T06:54:43.374Z,18.01
2023-05-07T06:57:10.443Z,18.06
2023-05-07T06:59:37.024Z,18.13
2023-05-07T07:02:03.627Z,18.34
2023-05-07T07:04:31.083Z,18.01
2023-05-07T07:07:05.146Z,18.25
2023-05-07T07:09:32.242Z,18.40
2023-05-07T07:12:00.840Z,18.46
2023-05-07T07:14:28.064Z,18.45
2023-05-07T07:16:55.197Z,18.44
2023-05-07T07:19:23.467Z,18.55
2023-05-07T07:21:53.119Z,18.68
2023-05-07T07:24:22.193Z,18.85
2023-05-07T07:26:52.860Z,18.60
2023-05-07T07:29:20.987Z,18.73
2023-05-07T07:31:49.867Z,18.45
2023-05-07T07:34:17.465Z,18.77
2023-05-07T07:36:46.803Z,18.97
2023-05-07T07:39:16.941Z,18.91
2023-05-07T07:41:44.669Z,19.05
2023-05-07T07:44:16.080Z,19.16
2023-05-07T07:46:44.650Z,19.18
2023-05-07T07:49:11.224Z,19.01
2023-05-07T07:51:37.790Z,18.97
2023-05-07T07:54:04.740Z,18.98
2023-05-07T07:56:34.640Z,19.15
2023-05-07T07:59:02.680Z,19.10
2023-05-07T08:01:31.392Z,19.38
2023-05-07T08:04:04.177Z,19.66
2023-05-07T08:06:33.656Z,19.63
2023-05-07T08:09:00.311Z,19.61
2023-05-07T08:11:27.226Z,19.83
2023-05-07T08:13:56.065Z,19.98
2023-05-07T08:16:24.155Z,20.24
2023-05-07T08:18:52.203Z,20.18
2023-05-07T08:21:18.801Z,20.73
2023-05-07T08:23:45.657Z,21.07
2023-05-07T08:26:12.342Z,21.29
2023-05-07T08:28:38.891Z,21.06
2023-05-07T08:31:05.533Z,21.57
2023-05-07T08:33:35.954Z,21.96
2023-05-07T08:36:02.557Z,22.31
2023-05-07T08:38:29.717Z,22.61
2023-05-07T08:40:56.344Z,22.90
2023-05-07T08:43:27.242Z,23.20
2023-05-07T08:46:02.514Z,23.82
2023-05-07T08:48:33.688Z,24.05
2023-05-07T08:51:07.315Z,24.28
2023-05-07T08:53:34.608Z,24.98
2023-05-07T08:56:02.050Z,25.05
2023-05-07T08:58:29.646Z,25.25
2023-05-07T09:00:56.970Z,25.75
2023-05-07T09:03:24.336Z,25.71
2023-05-07T09:05:53.577Z,25.64
2023-05-07T09:08:26.004Z,25.26
2023-05-07T09:10:54.621Z,25.85
2023-05-07T09:13:22.702Z,26.07
2023-05-07T09:15:50.427Z,26.18
2023-05-07T09:18:17.403Z,26.82
2023-05-07T09:20:47.172Z,26.92
2023-05-07T09:23:14.962Z,27.20
2023-05-07T09:25:43.523Z,26.75
2023-05-07T09:28:16.497Z,27.64
2023-05-07T09:30:43.114Z,27.36
2023-05-07T09:33:12.369Z,27.48
2023-05-07T09:35:42.710Z,27.51
2023-05-07T09:38:15.074Z,27.54
2023-05-07T09:40:41.927Z,27.58
2023-05-07T09:43:14.975Z,27.82
2023-05-07T09:45:58.786Z,28.13
2023-05-07T09:48:28.459Z,28.11
2023-05-07T09:51:00.708Z,28.19
2023-05-07T09:53:32.073Z,28.29
2023-05-07T09:56:04.464Z,28.05
2023-05-07T09:58:33.314Z,28.73
2023-05-07T10:01:01.950Z,28.37
2023-05-07T10:03:33.139Z,28.55
2023-05-07T10:06:05.663Z,28.40
2023-05-07T10:08:32.647Z,28.51
2023-05-07T10:11:02.785Z,28.56
2023-05-07T10:13:30.452Z,28.36
2023-05-07T10:15:59.389Z,28.02
2023-05-07T10:18:33.813Z,27.99
2023-05-07T10:21:16.947Z,27.50
2023-05-07T10:23:49.967Z,27.43
2023-05-07T10:26:19.243Z,27.37
2023-05-07T10:28:51.852Z,27.06
2023-05-07T10:31:45.841Z,27.14
2023-05-07T10:34:17.676Z,27.26
2023-05-07T10:36:45.856Z,27.38
2023-05-07T10:39:14.362Z,27.54
2023-05-07T10:41:41.511Z,27.32
2023-05-07T10:44:08.657Z,27.13
2023-05-07T10:46:37.893Z,27.01
2023-05-07T10:49:12.844Z,27.36
2023-05-07T10:52:17.505Z,27.77
2023-05-07T10:55:16.170Z,27.49
2023-05-07T10:57:44.946Z,27.24
2023-05-07T11:03:02.978Z,27.01
2023-05-07T11:05:38.519Z,26.76
2023-05-07T11:08:17.891Z,26.55
2023-05-07T11:10:56.046Z,26.23
2023-05-07T11:14:01.119Z,26.14
2023-05-07T11:16:42.593Z,26.17
2023-05-07T11:19:51.996Z,26.04
2023-05-07T11:22:38.056Z,26.34
2023-05-07T11:25:11.547Z,26.48
2023-05-07T11:27:39.033Z,26.54
2023-05-07T11:30:06.354Z,26.05
2023-05-07T11:32:33.525Z,26.38
2023-05-07T11:35:02.064Z,26.54
2023-05-07T11:37:30.813Z,26.29
2023-05-07T11:40:07.483Z,26.45
2023-05-07T11:42:42.056Z,26.16
2023-05-07T11:45:09.703Z,25.90
2023-05-07T11:47:36.504Z,26.25
2023-05-07T11:50:09.191Z,26.49
2023-05-07T11:52:36.560Z,26.62
2023-05-07T11:55:05.263Z,26.76
2023-05-07T11:57:34.163Z,26.73
2023-05-07T12:00:03.076Z,27.03
2023-05-07T12:02:39.669Z,26.91
2023-05-07T12:05:07.833Z,26.75
2023-05-07T12:07:35.765Z,27.13
2023-05-07T12:10:08.878Z,27.20
2023-05-07T12:12:47.338Z,27.18
2023-05-07T12:15:17.200Z,26.99
2023-05-07T12:17:44.397Z,26.88
2023-05-07T12:20:11.515Z,27.20
2023-05-07T12:22:38.280Z,27.10
2023-05-07T12:25:05.364Z,26.91
2023-05-07T12:27:32.057Z,27.10
2023-05-07T12:30:00.235Z,26.90
2023-05-07T12:32:26.953Z,26.41
2023-05-07T12:34:53.580Z,26.90
2023-05-07T12:37:27.849Z,26.67
2023-05-07T12:40:10.040Z,26.62
2023-05-07T12:42:37.921Z,26.56
2023-05-07T12:45:12.719Z,26.35
2023-05-07T12:47:46.565Z,26.21
2023-05-07T12:52:58.741Z,25.85
2023-05-07T12:55:25.344Z,25.65
2023-05-07T12:57:53.672Z,25.46
2023-05-07T13:00:39.971Z,25.30
2023-05-07T13:03:06.770Z,25.23
2023-05-07T13:05:33.615Z,25.11
2023-05-07T13:08:00.405Z,24.97
2023-05-07T13:10:28.139Z,25.08
2023-05-07T13:12:54.808Z,24.90
2023-05-07T13:15:22.636Z,24.82
2023-05-07T13:17:49.325Z,24.57
2023-05-07T13:20:16.469Z,24.01
2023-05-07T13:22:43.174Z,24.46
2023-05-07T13:25:10.291Z,24.13
2023-05-07T13:27:37.877Z,24.24
2023-05-07T13:30:06.447Z,24.28
2023-05-07T13:32:33.185Z,24.06
2023-05-07T13:34:59.777Z,24.00
2023-05-07T13:37:26.343Z,23.49
2023-05-07T13:39:52.928Z,23.55
2023-05-07T13:42:19.546Z,23.53
2023-05-07T13:44:46.353Z,23.34
2023-05-07T13:47:12.997Z,23.45
2023-05-07T13:49:39.548Z,23.24
2023-05-07T13:52:07.622Z,23.21
2023-05-07T13:54:34.284Z,23.12
2023-05-07T13:57:01.370Z,22.99
2023-05-07T13:59:28.060Z,23.09
2023-05-07T14:01:55.760Z,22.92
2023-05-07T14:04:22.403Z,22.95
2023-05-07T14:06:48.944Z,22.91
2023-05-07T14:09:15.565Z,22.69
2023-05-07T14:11:42.514Z,22.46
2023-05-07T14:14:11.678Z,22.59
2023-05-07T14:16:38.777Z,22.56
2023-05-07T14:19:05.386Z,22.50
2023-05-07T14:21:32.415Z,22.17
2023-05-07T14:23:59.060Z,21.56
2023-05-07T14:26:27.875Z,21.23
2023-05-07T14:28:55.942Z,20.93
2023-05-07T14:31:22.607Z,20.35
2023-05-07T14:33:50.816Z,20.10
2023-05-07T14:36:18.257Z,19.89
2023-05-07T14:38:44.899Z,19.57
2023-05-07T14:41:12.548Z,18.86
2023-05-07T14:43:39.225Z,18.88
2023-05-07T14:46:05.914Z,18.45
2023-05-07T14:48:33.463Z,18.10
2023-05-07T14:51:00.264Z,17.71
2023-05-07T14:53:27.876Z,17.78
2023-05-07T14:55:55.188Z,17.75
2023-05-07T14:58:21.753Z,17.35
2023-05-07T15:00:48.339Z,17.49
2023-05-07T15:03:15.196Z,16.70
2023-05-07T15:05:43.903Z,17.39
2023-05-07T15:08:10.570Z,16.91
2023-05-07T15:10:42.199Z,17.12
2023-05-07T15:13:15.340Z,17.04
2023-05-07T15:15:44.782Z,16.61
2023-05-07T15:18:11.434Z,16.86
2023-05-07T15:20:38.177Z,16.83
2023-05-07T15:23:06.766Z,16.77
2023-05-07T15:25:34.757Z,16.67
2023-05-07T15:28:01.515Z,16.67
2023-05-07T15:30:28.273Z,16.72
2023-05-07T15:32:54.947Z,16.72
2023-05-07T15:35:22.918Z,16.78
2023-05-07T15:37:53.700Z,16.68
2023-05-07T15:40:20.392Z,16.29
2023-05-07T15:42:47.315Z,16.72
2023-05-07T15:45:14.280Z,16.44
2023-05-07T15:47:41.602Z,16.86
2023-05-07T15:50:08.855Z,16.99
2023-05-07T15:52:35.859Z,16.94
2023-05-07T15:55:03.471Z,16.99
2023-05-07T15:57:30.137Z,16.53
2023-05-07T15:59:56.745Z,16.92
2023-05-07T16:02:23.351Z,17.06
2023-05-07T16:04:50.001Z,17.21
2023-05-07T16:07:16.550Z,17.28
2023-05-07T16:09:43.131Z,17.19
2023-05-07T16:12:09.787Z,17.27
2023-05-07T16:14:36.304Z,17.42
2023-05-07T16:17:03.087Z,17.55
2023-05-07T16:19:30.725Z,17.65
2023-05-07T16:21:57.850Z,17.77
2023-05-07T16:24:24.543Z,17.82
2023-05-07T16:26:51.129Z,17.88
2023-05-07T16:29:17.898Z,18.06
2023-05-07T16:31:44.603Z,18.07
2023-05-07T16:34:11.295Z,18.21
2023-05-07T16:36:38.876Z,18.26
2023-05-07T16:39:05.709Z,18.12
2023-05-07T16:41:32.875Z,17.85
2023-05-07T16:43:59.458Z,18.36
2023-05-07T16:46:26.433Z,18.20
2023-05-07T16:48:54.072Z,18.20
2023-05-07T16:51:21.995Z,18.26
2023-05-07T16:53:48.901Z,18.31
2023-05-07T16:56:15.736Z,18.14
2023-05-07T16:58:42.436Z,17.69
2023-05-07T17:01:11.438Z,18.05
2023-05-07T17:03:38.493Z,17.93
2023-05-07T17:06:12.855Z,18.05
2023-05-07T17:08:42.120Z,17.90
2023-05-07T17:11:09.426Z,17.81
2023-05-07T17:13:37.082Z,17.91
2023-05-07T17:16:03.940Z,17.69
2023-05-07T17:18:30.655Z,17.62
2023-05-07T17:20:57.343Z,17.66
2023-05-07T17:23:23.959Z,17.25
2023-05-07T17:25:50.799Z,17.72
2023-05-07T17:28:17.498Z,17.30
2023-05-07T17:30:46.433Z,17.49
2023-05-07T17:33:20.985Z,17.52
2023-05-07T17:35:49.581Z,17.57
2023-05-07T17:38:17.275Z,17.40
2023-05-07T17:40:43.922Z,17.29
2023-05-07T17:43:10.602Z,17.18
2023-05-07T17:45:37.317Z,17.38
2023-05-07T17:48:05.062Z,17.16
2023-05-07T17:50:32.984Z,17.16
2023-05-07T17:52:59.650Z,17.21
2023-05-07T17:55:26.487Z,17.23
2023-05-07T17:57:53.140Z,17.19
2023-05-07T18:00:20.121Z,17.13
2023-05-07T18:02:46.835Z,17.28
2023-05-07T18:05:13.570Z,17.11
2023-05-07T18:07:41.296Z,17.23
2023-05-07T18:10:08.323Z,17.05
2023-05-07T18:12:35.681Z,16.94
2023-05-07T18:15:02.632Z,16.95
2023-05-07T18:17:29.294Z,17.33
2023-05-07T18:19:56.214Z,17.26
2023-05-07T18:22:22.871Z,17.09
2023-05-07T18:24:49.722Z,17.15
2023-05-07T18:27:16.353Z,17.21
2023-05-07T18:29:42.975Z,16.84
2023-05-07T18:32:10.660Z,17.17
2023-05-07T18:34:37.350Z,16.99
2023-05-07T18:37:03.997Z,16.94
2023-05-07T18:39:31.794Z,17.07
2023-05-07T18:41:58.828Z,16.96
2023-05-07T18:44:25.457Z,16.79
2023-05-07T18:46:52.058Z,16.81
2023-05-07T18:49:19.076Z,16.54
2023-05-07T18:51:45.694Z,16.75
2023-05-07T18:54:12.403Z,16.59
2023-05-07T18:56:41.603Z,16.61
2023-05-07T18:59:08.214Z,16.61
2023-05-07T19:01:35.822Z,16.68
2023-05-07T19:04:02.783Z,16.57
2023-05-07T19:06:31.781Z,16.42
2023-05-07T19:09:00.078Z,16.47
2023-05-07T19:11:26.984Z,16.55
2023-05-07T19:13:53.740Z,16.46
2023-05-07T19:16:20.533Z,16.59
2023-05-07T19:18:47.914Z,16.55
2023-05-07T19:21:14.486Z,16.32
2023-05-07T19:23:44.193Z,16.32
2023-05-07T19:26:12.228Z,16.05
2023-05-07T19:28:45.263Z,16.06
2023-05-07T19:31:22.451Z,16.33
2023-05-07T19:33:49.451Z,16.34
2023-05-07T19:36:17.300Z,16.27
2023-05-07T19:38:44.999Z,16.20
2023-05-07T19:41:14.545Z,16.25
2023-05-07T19:43:41.733Z,16.25
2023-05-07T19:46:08.511Z,16.33
2023-05-07T19:48:35.193Z,15.79
2023-05-07T19:51:01.955Z,16.23
2023-05-07T19:53:30.156Z,16.39
2023-05-07T19:56:04.489Z,16.33
2023-05-07T19:58:31.373Z,15.84
2023-05-07T20:00:57.996Z,16.25
2023-05-07T20:03:24.837Z,16.31
2023-05-07T20:05:51.765Z,15.96
2023-05-07T20:08:18.504Z,16.28
2023-05-07T20:10:45.384Z,16.32
2023-05-07T20:13:12.286Z,16.21
2023-05-07T20:15:39.358Z,16.19
2023-05-07T20:18:06.097Z,16.19
2023-05-07T20:20:32.835Z,16.04
2023-05-07T20:22:59.775Z,16.27
2023-05-07T20:25:26.669Z,16.07
2023-05-07T20:27:54.132Z,16.19
2023-05-07T20:30:23.562Z,16.35
2023-05-07T20:32:50.805Z,15.88
2023-05-07T20:35:17.561Z,16.37
2023-05-07T20:37:44.140Z,16.13
2023-05-07T20:40:11.575Z,16.16
2023-05-07T20:42:38.583Z,16.28
2023-05-07T20:45:06.161Z,16.14
2023-05-07T20:47:33.882Z,16.32
2023-05-07T20:50:00.614Z,16.33
2023-05-07T20:52:27.198Z,16.21
2023-05-07T20:54:53.904Z,16.15
2023-05-07T20:57:20.573Z,15.98
2023-05-07T20:59:47.141Z,16.06
2023-05-07T21:02:13.903Z,15.66
2023-05-07T21:04:40.614Z,15.91
2023-05-07T21:07:08.406Z,16.16
2023-05-07T21:09:35.535Z,15.98
2023-05-07T21:12:03.015Z,16.18
2023-05-07T21:14:29.765Z,16.05
2023-05-07T21:16:56.503Z,16.08
2023-05-07T21:19:23.165Z,16.05
2023-05-07T21:21:49.761Z,16.13
2023-05-07T21:24:16.401Z,16.07
2023-05-07T21:26:44.064Z,16.16
2023-05-07T21:29:10.665Z,16.11
2023-05-07T21:31:37.397Z,16.09
2023-05-07T21:34:04.076Z,15.87
2023-05-07T21:36:31.394Z,15.95
2023-05-07T21:38:58.081Z,16.09
2023-05-07T21:41:24.745Z,16.10
2023-05-07T21:43:53.333Z,15.87
2023-05-07T21:46:19.930Z,16.10
2023-05-07T21:48:46.624Z,15.92
2023-05-07T21:51:13.356Z,15.95
2023-05-07T21:53:40.218Z,15.80
2023-05-07T21:56:07.034Z,15.78
2023-05-07T21:58:33.810Z,15.80
2023-05-07T22:01:01.350Z,15.75
2023-05-07T22:03:28.258Z,15.88
2023-05-07T22:05:54.940Z,15.98
2023-05-07T22:08:23.356Z,15.74
2023-05-07T22:10:50.634Z,15.74
2023-05-07T22:13:17.337Z,15.42
2023-05-07T22:15:56.126Z,15.84
2023-05-07T22:18:23.758Z,15.86
2023-05-07T22:20:53.524Z,15.76
2023-05-07T22:23:20.242Z,15.81
2023-05-07T22:25:46.944Z,15.67
2023-05-07T22:28:13.631Z,15.46
2023-05-07T22:30:40.541Z,15.90
2023-05-07T22:33:08.515Z,15.79
2023-05-07T22:35:35.262Z,15.75
2023-05-07T22:38:02.021Z,15.90
2023-05-07T22:40:28.670Z,15.71
2023-05-07T22:42:55.334Z,15.76
2023-05-07T22:45:22.222Z,15.81
2023-05-07T22:47:49.949Z,15.89
2023-05-07T22:50:16.615Z,16.01
2023-05-07T22:52:44.206Z,15.81
2023-05-07T22:55:10.870Z,15.83
2023-05-07T22:57:37.492Z,15.92
2023-05-07T23:00:05.071Z,15.50
2023-05-07T23:02:32.513Z,15.68
2023-05-07T23:05:00.959Z,15.76
2023-05-07T23:07:28.529Z,15.81
2023-05-07T23:09:55.353Z,15.96
2023-05-07T23:12:22.093Z,15.85
2023-05-07T23:14:48.716Z,15.83
2023-05-07T23:17:15.326Z,15.80
2023-05-07T23:19:41.929Z,15.49
2023-05-07T23:22:12.246Z,15.90
2023-05-07T23:24:39.875Z,15.82
2023-05-07T23:27:08.308Z,15.93
2023-05-07T23:29:35.438Z,15.97
2023-05-07T23:32:02.257Z,15.79
2023-05-07T23:34:28.835Z,15.88
2023-05-07T23:36:56.500Z,15.85
2023-05-07T23:39:23.103Z,16.01
2023-05-07T23:41:50.669Z,15.76
2023-05-07T23:44:17.416Z,15.96
2023-05-07T23:46:44.738Z,15.88
2023-05-07T23:49:11.536Z,15.91
2023-05-07T23:51:38.144Z,15.99
2023-05-07T23:54:05.134Z,15.69
2023-05-07T23:56:32.186Z,15.73
2023-05-07T23:58:59.463Z,15.81
